sensor_id;sensor_type;location;lat;lon;timestamp;P1;durP1;ratioP1;P2;durP2;ratioP2
40046;SDS011;31510;48.122;11.576;2022-07-22T00:02:22;15.52;;;13.77;;
40046;SDS011;31510;48.122;11.576;2022-07-22T00:04:48;15.65;;;13.35;;
40046;SDS011;31510;48.122;11.576;2022-07-22T00:07:13;15.55;;;13.90;;
40046;SDS011;31510;48.122;11.576;2022-07-22T00:09:39;15.32;;;12.73;;
40046;SDS011;31510;48.122;11.576;2022-07-22T00:12:04;14.57;;;12.88;;
40046;SDS011;31510;48.122;11.576;2022-07-22T00:14:30;13.68;;;12.27;;
40046;SDS011;31510;48.122;11.576;2022-07-22T00:16:55;15.57;;;12.93;;
40046;SDS011;31510;48.122;11.576;2022-07-22T00:19:21;13.77;;;12.45;;
40046;SDS011;31510;48.122;11.576;2022-07-22T00:21:46;15.02;;;13.20;;
40046;SDS011;31510;48.122;11.576;2022-07-22T00:24:12;14.10;;;12.60;;
40046;SDS011;31510;48.122;11.576;2022-07-22T00:26:37;15.07;;;13.50;;
40046;SDS011;31510;48.122;11.576;2022-07-22T00:29:02;14.40;;;12.45;;
40046;SDS011;31510;48.122;11.576;2022-07-22T00:31:28;16.63;;;13.10;;
40046;SDS011;31510;48.122;11.576;2022-07-22T00:33:55;15.32;;;13.73;;
40046;SDS011;31510;48.122;11.576;2022-07-22T00:36:21;15.10;;;13.40;;
40046;SDS011;31510;48.122;11.576;2022-07-22T00:38:46;14.95;;;13.32;;
40046;SDS011;31510;48.122;11.576;2022-07-22T00:41:11;14.75;;;13.23;;
40046;SDS011;31510;48.122;11.576;2022-07-22T00:43:50;13.15;;;11.80;;
40046;SDS011;31510;48.122;11.576;2022-07-22T00:46:20;15.35;;;13.02;;
40046;SDS011;31510;48.122;11.576;2022-07-22T00:48:45;15.60;;;12.93;;
40046;SDS011;31510;48.122;11.576;2022-07-22T00:51:11;14.70;;;12.60;;
40046;SDS011;31510;48.122;11.576;2022-07-22T00:53:36;17.33;;;13.52;;
40046;SDS011;31510;48.122;11.576;2022-07-22T00:56:02;13.80;;;12.38;;
40046;SDS011;31510;48.122;11.576;2022-07-22T00:58:28;13.82;;;12.43;;
40046;SDS011;31510;48.122;11.576;2022-07-22T01:00:54;13.77;;;12.48;;
40046;SDS011;31510;48.122;11.576;2022-07-22T01:03:20;14.00;;;12.57;;
40046;SDS011;31510;48.122;11.576;2022-07-22T01:05:45;16.17;;;13.45;;
40046;SDS011;31510;48.122;11.576;2022-07-22T01:08:10;13.95;;;12.27;;
40046;SDS011;31510;48.122;11.576;2022-07-22T01:10:36;14.60;;;12.90;;
40046;SDS011;31510;48.122;11.576;2022-07-22T01:13:01;15.23;;;12.77;;
40046;SDS011;31510;48.122;11.576;2022-07-22T01:15:27;14.80;;;12.63;;
40046;SDS011;31510;48.122;11.576;2022-07-22T01:17:52;16.30;;;12.80;;
40046;SDS011;31510;48.122;11.576;2022-07-22T01:20:17;14.43;;;12.93;;
40046;SDS011;31510;48.122;11.576;2022-07-22T01:22:43;14.95;;;13.32;;
40046;SDS011;31510;48.122;11.576;2022-07-22T01:25:10;13.00;;;11.13;;
40046;SDS011;31510;48.122;11.576;2022-07-22T01:27:36;14.73;;;12.85;;
40046;SDS011;31510;48.122;11.576;2022-07-22T01:30:02;14.00;;;12.60;;
40046;SDS011;31510;48.122;11.576;2022-07-22T01:32:29;14.95;;;13.25;;
40046;SDS011;31510;48.122;11.576;2022-07-22T01:34:54;15.35;;;13.80;;
40046;SDS011;31510;48.122;11.576;2022-07-22T01:37:20;14.60;;;13.20;;
40046;SDS011;31510;48.122;11.576;2022-07-22T01:39:45;14.30;;;12.75;;
40046;SDS011;31510;48.122;11.576;2022-07-22T01:42:10;14.77;;;13.20;;
40046;SDS011;31510;48.122;11.576;2022-07-22T01:44:36;15.38;;;13.38;;
40046;SDS011;31510;48.122;11.576;2022-07-22T01:47:01;15.15;;;13.23;;
40046;SDS011;31510;48.122;11.576;2022-07-22T01:49:26;15.30;;;12.70;;
40046;SDS011;31510;48.122;11.576;2022-07-22T01:51:52;15.13;;;13.60;;
40046;SDS011;31510;48.122;11.576;2022-07-22T01:54:17;15.75;;;12.93;;
40046;SDS011;31510;48.122;11.576;2022-07-22T01:56:43;18.77;;;13.50;;
40046;SDS011;31510;48.122;11.576;2022-07-22T01:59:08;16.77;;;13.32;;
40046;SDS011;31510;48.122;11.576;2022-07-22T02:01:33;15.07;;;13.20;;
40046;SDS011;31510;48.122;11.576;2022-07-22T02:03:59;14.93;;;12.20;;
40046;SDS011;31510;48.122;11.576;2022-07-22T02:06:24;13.90;;;12.33;;
40046;SDS011;31510;48.122;11.576;2022-07-22T02:08:49;14.50;;;12.13;;
40046;SDS011;31510;48.122;11.576;2022-07-22T02:11:14;14.60;;;12.95;;
40046;SDS011;31510;48.122;11.576;2022-07-22T02:13:40;15.68;;;13.95;;
40046;SDS011;31510;48.122;11.576;2022-07-22T02:16:05;14.52;;;12.32;;
40046;SDS011;31510;48.122;11.576;2022-07-22T02:18:30;12.90;;;11.55;;
40046;SDS011;31510;48.122;11.576;2022-07-22T02:20:56;13.95;;;12.55;;
40046;SDS011;31510;48.122;11.576;2022-07-22T02:23:21;13.18;;;11.65;;
40046;SDS011;31510;48.122;11.576;2022-07-22T02:25:47;15.55;;;12.65;;
40046;SDS011;31510;48.122;11.576;2022-07-22T02:28:12;14.07;;;12.60;;
40046;SDS011;31510;48.122;11.576;2022-07-22T02:30:37;15.30;;;13.15;;
40046;SDS011;31510;48.122;11.576;2022-07-22T02:33:03;14.80;;;12.48;;
40046;SDS011;31510;48.122;11.576;2022-07-22T02:35:29;15.60;;;12.45;;
40046;SDS011;31510;48.122;11.576;2022-07-22T02:37:54;15.15;;;13.02;;
40046;SDS011;31510;48.122;11.576;2022-07-22T02:40:19;13.98;;;12.68;;
40046;SDS011;31510;48.122;11.576;2022-07-22T02:42:45;14.55;;;13.02;;
40046;SDS011;31510;48.122;11.576;2022-07-22T02:45:10;15.63;;;12.80;;
40046;SDS011;31510;48.122;11.576;2022-07-22T02:47:44;15.23;;;12.90;;
40046;SDS011;31510;48.122;11.576;2022-07-22T02:50:20;16.13;;;12.10;;
40046;SDS011;31510;48.122;11.576;2022-07-22T02:52:46;15.18;;;12.43;;
40046;SDS011;31510;48.122;11.576;2022-07-22T02:55:11;14.30;;;12.27;;
40046;SDS011;31510;48.122;11.576;2022-07-22T02:57:37;14.77;;;12.45;;
40046;SDS011;31510;48.122;11.576;2022-07-22T03:00:03;14.20;;;12.95;;
40046;SDS011;31510;48.122;11.576;2022-07-22T03:02:29;14.85;;;13.10;;
40046;SDS011;31510;48.122;11.576;2022-07-22T03:04:55;14.20;;;12.70;;
40046;SDS011;31510;48.122;11.576;2022-07-22T03:07:20;15.65;;;12.48;;
40046;SDS011;31510;48.122;11.576;2022-07-22T03:09:45;14.98;;;12.85;;
40046;SDS011;31510;48.122;11.576;2022-07-22T03:12:11;15.18;;;12.75;;
40046;SDS011;31510;48.122;11.576;2022-07-22T03:14:36;16.08;;;13.32;;
40046;SDS011;31510;48.122;11.576;2022-07-22T03:17:01;15.57;;;13.15;;
40046;SDS011;31510;48.122;11.576;2022-07-22T03:19:27;15.10;;;12.35;;
40046;SDS011;31510;48.122;11.576;2022-07-22T03:21:52;13.73;;;12.32;;
40046;SDS011;31510;48.122;11.576;2022-07-22T03:24:17;15.65;;;13.05;;
40046;SDS011;31510;48.122;11.576;2022-07-22T03:26:43;14.60;;;12.68;;
40046;SDS011;31510;48.122;11.576;2022-07-22T03:29:08;16.40;;;12.98;;
40046;SDS011;31510;48.122;11.576;2022-07-22T03:31:33;21.13;;;13.80;;
40046;SDS011;31510;48.122;11.576;2022-07-22T03:33:59;16.23;;;13.25;;
40046;SDS011;31510;48.122;11.576;2022-07-22T03:36:25;14.18;;;12.70;;
40046;SDS011;31510;48.122;11.576;2022-07-22T03:38:51;14.63;;;12.98;;
40046;SDS011;31510;48.122;11.576;2022-07-22T03:41:17;15.85;;;12.73;;
40046;SDS011;31510;48.122;11.576;2022-07-22T03:43:42;15.43;;;13.82;;
40046;SDS011;31510;48.122;11.576;2022-07-22T03:46:07;15.70;;;13.52;;
40046;SDS011;31510;48.122;11.576;2022-07-22T03:48:33;15.25;;;13.27;;
40046;SDS011;31510;48.122;11.576;2022-07-22T03:50:58;13.98;;;12.35;;
40046;SDS011;31510;48.122;11.576;2022-07-22T03:53:23;15.30;;;13.70;;
40046;SDS011;31510;48.122;11.576;2022-07-22T03:55:49;16.10;;;12.97;;
40046;SDS011;31510;48.122;11.576;2022-07-22T03:58:15;14.70;;;12.68;;
40046;SDS011;31510;48.122;11.576;2022-07-22T04:00:42;15.48;;;13.65;;
40046;SDS011;31510;48.122;11.576;2022-07-22T04:03:07;16.30;;;13.05;;
40046;SDS011;31510;48.122;11.576;2022-07-22T04:05:32;18.13;;;12.90;;
40046;SDS011;31510;48.122;11.576;2022-07-22T04:07:58;14.63;;;13.13;;
40046;SDS011;31510;48.122;11.576;2022-07-22T04:10:23;16.73;;;13.02;;
40046;SDS011;31510;48.122;11.576;2022-07-22T04:12:48;15.35;;;13.25;;
40046;SDS011;31510;48.122;11.576;2022-07-22T04:15:14;15.43;;;13.80;;
40046;SDS011;31510;48.122;11.576;2022-07-22T04:17:39;15.15;;;13.65;;
40046;SDS011;31510;48.122;11.576;2022-07-22T04:20:05;19.10;;;14.15;;
40046;SDS011;31510;48.122;11.576;2022-07-22T04:22:31;18.40;;;13.98;;
40046;SDS011;31510;48.122;11.576;2022-07-22T04:24:56;16.75;;;14.45;;
40046;SDS011;31510;48.122;11.576;2022-07-22T04:27:21;16.70;;;14.10;;
40046;SDS011;31510;48.122;11.576;2022-07-22T04:29:48;16.70;;;14.30;;
40046;SDS011;31510;48.122;11.576;2022-07-22T04:32:13;14.98;;;13.43;;
40046;SDS011;31510;48.122;11.576;2022-07-22T04:34:39;15.32;;;13.73;;
40046;SDS011;31510;48.122;11.576;2022-07-22T04:37:04;17.10;;;14.43;;
40046;SDS011;31510;48.122;11.576;2022-07-22T04:39:30;17.42;;;13.80;;
40046;SDS011;31510;48.122;11.576;2022-07-22T04:41:55;17.08;;;14.50;;
40046;SDS011;31510;48.122;11.576;2022-07-22T04:44:21;19.42;;;14.68;;
40046;SDS011;31510;48.122;11.576;2022-07-22T04:46:46;15.10;;;13.55;;
40046;SDS011;31510;48.122;11.576;2022-07-22T04:49:12;18.52;;;13.80;;
40046;SDS011;31510;48.122;11.576;2022-07-22T04:51:37;14.82;;;13.32;;
40046;SDS011;31510;48.122;11.576;2022-07-22T04:54:03;17.27;;;14.35;;
40046;SDS011;31510;48.122;11.576;2022-07-22T04:56:28;18.48;;;14.63;;
40046;SDS011;31510;48.122;11.576;2022-07-22T04:58:53;16.90;;;14.85;;
40046;SDS011;31510;48.122;11.576;2022-07-22T05:01:19;18.92;;;14.98;;
40046;SDS011;31510;48.122;11.576;2022-07-22T05:03:44;17.60;;;13.60;;
40046;SDS011;31510;48.122;11.576;2022-07-22T05:06:09;18.90;;;14.52;;
40046;SDS011;31510;48.122;11.576;2022-07-22T05:08:35;16.52;;;13.88;;
40046;SDS011;31510;48.122;11.576;2022-07-22T05:11:00;19.35;;;14.90;;
40046;SDS011;31510;48.122;11.576;2022-07-22T05:13:26;19.02;;;13.93;;
40046;SDS011;31510;48.122;11.576;2022-07-22T05:15:51;22.40;;;15.85;;
40046;SDS011;31510;48.122;11.576;2022-07-22T05:18:16;19.65;;;14.73;;
40046;SDS011;31510;48.122;11.576;2022-07-22T05:20:42;19.25;;;15.55;;
40046;SDS011;31510;48.122;11.576;2022-07-22T05:23:08;16.02;;;13.82;;
40046;SDS011;31510;48.122;11.576;2022-07-22T05:25:33;17.85;;;13.85;;
40046;SDS011;31510;48.122;11.576;2022-07-22T05:27:58;17.45;;;13.85;;
40046;SDS011;31510;48.122;11.576;2022-07-22T05:30:24;16.23;;;13.93;;
40046;SDS011;31510;48.122;11.576;2022-07-22T05:32:49;17.38;;;14.38;;
40046;SDS011;31510;48.122;11.576;2022-07-22T05:35:14;17.75;;;14.63;;
40046;SDS011;31510;48.122;11.576;2022-07-22T05:37:39;14.48;;;12.98;;
40046;SDS011;31510;48.122;11.576;2022-07-22T05:40:05;17.55;;;15.43;;
40046;SDS011;31510;48.122;11.576;2022-07-22T05:42:31;17.58;;;14.32;;
40046;SDS011;31510;48.122;11.576;2022-07-22T05:44:56;21.00;;;13.57;;
40046;SDS011;31510;48.122;11.576;2022-07-22T05:47:22;15.38;;;13.85;;
40046;SDS011;31510;48.122;11.576;2022-07-22T05:49:47;16.83;;;13.50;;
40046;SDS011;31510;48.122;11.576;2022-07-22T05:52:12;16.47;;;13.60;;
40046;SDS011;31510;48.122;11.576;2022-07-22T05:54:38;14.98;;;13.35;;
40046;SDS011;31510;48.122;11.576;2022-07-22T05:57:04;17.45;;;13.93;;
40046;SDS011;31510;48.122;11.576;2022-07-22T05:59:33;21.75;;;14.32;;
40046;SDS011;31510;48.122;11.576;2022-07-22T06:01:58;16.05;;;14.45;;
40046;SDS011;31510;48.122;11.576;2022-07-22T06:04:24;16.42;;;13.40;;
40046;SDS011;31510;48.122;11.576;2022-07-22T06:06:49;15.95;;;13.20;;
40046;SDS011;31510;48.122;11.576;2022-07-22T06:09:14;15.65;;;13.98;;
40046;SDS011;31510;48.122;11.576;2022-07-22T06:11:40;14.55;;;13.02;;
40046;SDS011;31510;48.122;11.576;2022-07-22T06:14:05;14.27;;;12.77;;
40046;SDS011;31510;48.122;11.576;2022-07-22T06:16:30;16.02;;;14.32;;
40046;SDS011;31510;48.122;11.576;2022-07-22T06:18:57;15.77;;;13.95;;
40046;SDS011;31510;48.122;11.576;2022-07-22T06:21:23;15.95;;;13.45;;
40046;SDS011;31510;48.122;11.576;2022-07-22T06:23:48;17.08;;;13.88;;
40046;SDS011;31510;48.122;11.576;2022-07-22T06:26:13;17.60;;;13.77;;
40046;SDS011;31510;48.122;11.576;2022-07-22T06:28:39;15.75;;;13.38;;
40046;SDS011;31510;48.122;11.576;2022-07-22T06:31:04;16.92;;;12.75;;
40046;SDS011;31510;48.122;11.576;2022-07-22T06:33:29;18.00;;;13.87;;
40046;SDS011;31510;48.122;11.576;2022-07-22T06:35:58;14.77;;;12.98;;
40046;SDS011;31510;48.122;11.576;2022-07-22T06:38:23;16.83;;;12.93;;
40046;SDS011;31510;48.122;11.576;2022-07-22T06:40:48;18.90;;;14.90;;
40046;SDS011;31510;48.122;11.576;2022-07-22T06:43:14;14.00;;;12.50;;
40046;SDS011;31510;48.122;11.576;2022-07-22T06:45:39;17.85;;;13.95;;
40046;SDS011;31510;48.122;11.576;2022-07-22T06:48:04;16.02;;;12.95;;
40046;SDS011;31510;48.122;11.576;2022-07-22T06:50:30;20.48;;;14.43;;
40046;SDS011;31510;48.122;11.576;2022-07-22T06:52:55;18.10;;;13.02;;
40046;SDS011;31510;48.122;11.576;2022-07-22T06:55:20;18.55;;;13.77;;
40046;SDS011;31510;48.122;11.576;2022-07-22T06:57:46;16.17;;;13.25;;
40046;SDS011;31510;48.122;11.576;2022-07-22T07:00:11;14.48;;;12.90;;
40046;SDS011;31510;48.122;11.576;2022-07-22T07:02:37;16.27;;;13.32;;
40046;SDS011;31510;48.122;11.576;2022-07-22T07:05:03;15.07;;;13.40;;
40046;SDS011;31510;48.122;11.576;2022-07-22T07:07:28;16.40;;;13.48;;
40046;SDS011;31510;48.122;11.576;2022-07-22T07:09:54;21.58;;;14.98;;
40046;SDS011;31510;48.122;11.576;2022-07-22T07:12:19;15.68;;;13.95;;
40046;SDS011;31510;48.122;11.576;2022-07-22T07:14:45;21.75;;;13.75;;
40046;SDS011;31510;48.122;11.576;2022-07-22T07:17:10;15.43;;;13.60;;
40046;SDS011;31510;48.122;11.576;2022-07-22T07:19:35;17.00;;;12.70;;
40046;SDS011;31510;48.122;11.576;2022-07-22T07:22:01;18.48;;;13.25;;
40046;SDS011;31510;48.122;11.576;2022-07-22T07:24:26;16.50;;;12.43;;
40046;SDS011;31510;48.122;11.576;2022-07-22T07:26:51;19.80;;;13.20;;
40046;SDS011;31510;48.122;11.576;2022-07-22T07:29:16;15.68;;;12.80;;
40046;SDS011;31510;48.122;11.576;2022-07-22T07:31:42;13.20;;;11.80;;
40046;SDS011;31510;48.122;11.576;2022-07-22T07:34:07;13.43;;;11.55;;
40046;SDS011;31510;48.122;11.576;2022-07-22T07:36:32;20.40;;;12.13;;
40046;SDS011;31510;48.122;11.576;2022-07-22T07:38:58;15.00;;;12.35;;
40046;SDS011;31510;48.122;11.576;2022-07-22T07:41:24;18.90;;;12.85;;
40046;SDS011;31510;48.122;11.576;2022-07-22T07:43:50;13.35;;;11.95;;
40046;SDS011;31510;48.122;11.576;2022-07-22T07:46:15;15.85;;;12.25;;
40046;SDS011;31510;48.122;11.576;2022-07-22T07:48:41;12.82;;;10.65;;
40046;SDS011;31510;48.122;11.576;2022-07-22T07:51:06;13.68;;;11.07;;
40046;SDS011;31510;48.122;11.576;2022-07-22T07:53:32;13.82;;;11.93;;
40046;SDS011;31510;48.122;11.576;2022-07-22T07:55:58;14.02;;;11.77;;
40046;SDS011;31510;48.122;11.576;2022-07-22T07:58:23;13.05;;;11.75;;
40046;SDS011;31510;48.122;11.576;2022-07-22T08:00:48;16.08;;;11.88;;
40046;SDS011;31510;48.122;11.576;2022-07-22T08:03:14;13.30;;;11.77;;
40046;SDS011;31510;48.122;11.576;2022-07-22T08:05:40;14.95;;;12.90;;
40046;SDS011;31510;48.122;11.576;2022-07-22T08:08:06;12.70;;;10.85;;
40046;SDS011;31510;48.122;11.576;2022-07-22T08:10:32;12.60;;;11.30;;
40046;SDS011;31510;48.122;11.576;2022-07-22T08:12:58;13.88;;;12.38;;
40046;SDS011;31510;48.122;11.576;2022-07-22T08:15:24;12.40;;;11.10;;
40046;SDS011;31510;48.122;11.576;2022-07-22T08:17:52;12.63;;;10.98;;
40046;SDS011;31510;48.122;11.576;2022-07-22T08:20:18;14.43;;;12.20;;
40046;SDS011;31510;48.122;11.576;2022-07-22T08:22:43;14.52;;;11.90;;
40046;SDS011;31510;48.122;11.576;2022-07-22T08:25:09;15.05;;;11.45;;
40046;SDS011;31510;48.122;11.576;2022-07-22T08:27:34;12.77;;;11.48;;
40046;SDS011;31510;48.122;11.576;2022-07-22T08:30:00;13.98;;;11.50;;
40046;SDS011;31510;48.122;11.576;2022-07-22T08:32:29;13.70;;;10.85;;
40046;SDS011;31510;48.122;11.576;2022-07-22T08:34:55;13.07;;;10.93;;
40046;SDS011;31510;48.122;11.576;2022-07-22T08:37:20;12.52;;;10.05;;
40046;SDS011;31510;48.122;11.576;2022-07-22T08:39:45;15.05;;;12.07;;
40046;SDS011;31510;48.122;11.576;2022-07-22T08:42:11;12.52;;;11.18;;
40046;SDS011;31510;48.122;11.576;2022-07-22T08:44:38;14.05;;;11.75;;
40046;SDS011;31510;48.122;11.576;2022-07-22T08:47:04;11.80;;;10.35;;
40046;SDS011;31510;48.122;11.576;2022-07-22T08:49:29;15.07;;;11.48;;
40046;SDS011;31510;48.122;11.576;2022-07-22T08:51:55;15.20;;;12.80;;
40046;SDS011;31510;48.122;11.576;2022-07-22T08:54:20;13.48;;;12.18;;
40046;SDS011;31510;48.122;11.576;2022-07-22T08:56:49;16.08;;;11.57;;
40046;SDS011;31510;48.122;11.576;2022-07-22T08:59:16;16.15;;;12.20;;
40046;SDS011;31510;48.122;11.576;2022-07-22T09:02:00;15.48;;;10.95;;
40046;SDS011;31510;48.122;11.576;2022-07-22T09:04:27;11.80;;;9.95;;
40046;SDS011;31510;48.122;11.576;2022-07-22T09:06:52;12.02;;;10.82;;
40046;SDS011;31510;48.122;11.576;2022-07-22T09:09:17;14.43;;;10.57;;
40046;SDS011;31510;48.122;11.576;2022-07-22T09:12:05;12.65;;;9.90;;
40046;SDS011;31510;48.122;11.576;2022-07-22T09:14:44;11.85;;;9.90;;
40046;SDS011;31510;48.122;11.576;2022-07-22T09:19:57;11.93;;;9.52;;
40046;SDS011;31510;48.122;11.576;2022-07-22T09:22:30;12.02;;;9.15;;
40046;SDS011;31510;48.122;11.576;2022-07-22T09:25:20;10.55;;;8.93;;
40046;SDS011;31510;48.122;11.576;2022-07-22T09:27:50;9.85;;;8.95;;
40046;SDS011;31510;48.122;11.576;2022-07-22T09:30:18;9.98;;;8.98;;
40046;SDS011;31510;48.122;11.576;2022-07-22T09:32:45;9.32;;;8.18;;
40046;SDS011;31510;48.122;11.576;2022-07-22T09:35:11;8.85;;;7.95;;
40046;SDS011;31510;48.122;11.576;2022-07-22T09:37:47;11.98;;;9.15;;
40046;SDS011;31510;48.122;11.576;2022-07-22T09:40:21;9.27;;;8.30;;
40046;SDS011;31510;48.122;11.576;2022-07-22T09:42:52;9.35;;;8.45;;
40046;SDS011;31510;48.122;11.576;2022-07-22T09:45:20;8.57;;;7.55;;
40046;SDS011;31510;48.122;11.576;2022-07-22T09:47:47;9.82;;;7.65;;
40046;SDS011;31510;48.122;11.576;2022-07-22T09:53:02;13.13;;;8.07;;
40046;SDS011;31510;48.122;11.576;2022-07-22T09:55:27;10.85;;;9.30;;
40046;SDS011;31510;48.122;11.576;2022-07-22T09:57:54;12.30;;;8.95;;
40046;SDS011;31510;48.122;11.576;2022-07-22T10:00:22;8.93;;;8.02;;
40046;SDS011;31510;48.122;11.576;2022-07-22T10:02:53;8.75;;;7.38;;
40046;SDS011;31510;48.122;11.576;2022-07-22T10:05:22;10.13;;;8.75;;
40046;SDS011;31510;48.122;11.576;2022-07-22T10:07:49;11.77;;;8.52;;
40046;SDS011;31510;48.122;11.576;2022-07-22T10:10:16;8.85;;;7.97;;
40046;SDS011;31510;48.122;11.576;2022-07-22T10:12:43;9.23;;;8.13;;
40046;SDS011;31510;48.122;11.576;2022-07-22T10:15:11;10.63;;;8.07;;
40046;SDS011;31510;48.122;11.576;2022-07-22T10:17:37;8.70;;;7.90;;
40046;SDS011;31510;48.122;11.576;2022-07-22T10:20:05;9.77;;;8.77;;
40046;SDS011;31510;48.122;11.576;2022-07-22T10:25:04;8.25;;;7.38;;
40046;SDS011;31510;48.122;11.576;2022-07-22T10:27:50;9.45;;;7.93;;
40046;SDS011;31510;48.122;11.576;2022-07-22T10:30:17;8.73;;;7.93;;
40046;SDS011;31510;48.122;11.576;2022-07-22T10:35:36;8.93;;;7.40;;
40046;SDS011;31510;48.122;11.576;2022-07-22T10:38:09;8.00;;;7.15;;
40046;SDS011;31510;48.122;11.576;2022-07-22T10:43:15;9.38;;;7.97;;
40046;SDS011;31510;48.122;11.576;2022-07-22T10:45:44;9.40;;;8.27;;
40046;SDS011;31510;48.122;11.576;2022-07-22T10:48:13;10.70;;;8.55;;
40046;SDS011;31510;48.122;11.576;2022-07-22T10:50:40;14.82;;;8.10;;
40046;SDS011;31510;48.122;11.576;2022-07-22T10:53:09;9.00;;;8.10;;
40046;SDS011;31510;48.122;11.576;2022-07-22T10:55:37;11.02;;;8.77;;
40046;SDS011;31510;48.122;11.576;2022-07-22T11:00:57;9.25;;;8.35;;
40046;SDS011;31510;48.122;11.576;2022-07-22T11:03:24;9.25;;;8.35;;
40046;SDS011;31510;48.122;11.576;2022-07-22T11:05:51;10.07;;;8.40;;
40046;SDS011;31510;48.122;11.576;2022-07-22T11:08:16;9.30;;;7.88;;
40046;SDS011;31510;48.122;11.576;2022-07-22T11:10:47;12.77;;;8.27;;
40046;SDS011;31510;48.122;11.576;2022-07-22T11:13:34;14.75;;;8.43;;
40046;SDS011;31510;48.122;11.576;2022-07-22T11:16:21;8.73;;;7.93;;
40046;SDS011;31510;48.122;11.576;2022-07-22T11:18:49;9.23;;;8.10;;
40046;SDS011;31510;48.122;11.576;2022-07-22T11:21:18;12.10;;;8.45;;
40046;SDS011;31510;48.122;11.576;2022-07-22T11:23:44;8.88;;;7.97;;
40046;SDS011;31510;48.122;11.576;2022-07-22T11:26:13;10.70;;;8.77;;
40046;SDS011;31510;48.122;11.576;2022-07-22T11:28:41;10.65;;;7.93;;
40046;SDS011;31510;48.122;11.576;2022-07-22T11:31:07;8.73;;;7.90;;
40046;SDS011;31510;48.122;11.576;2022-07-22T11:33:34;10.45;;;7.90;;
40046;SDS011;31510;48.122;11.576;2022-07-22T11:36:06;9.65;;;8.68;;
40046;SDS011;31510;48.122;11.576;2022-07-22T11:41:10;9.57;;;7.82;;
40046;SDS011;31510;48.122;11.576;2022-07-22T11:43:40;10.13;;;8.25;;
40046;SDS011;31510;48.122;11.576;2022-07-22T11:46:09;8.25;;;7.43;;
40046;SDS011;31510;48.122;11.576;2022-07-22T11:48:35;10.32;;;7.97;;
40046;SDS011;31510;48.122;11.576;2022-07-22T11:51:02;12.20;;;8.23;;
40046;SDS011;31510;48.122;11.576;2022-07-22T11:53:29;9.25;;;7.63;;
40046;SDS011;31510;48.122;11.576;2022-07-22T11:56:00;9.48;;;8.32;;
40046;SDS011;31510;48.122;11.576;2022-07-22T11:58:33;8.95;;;8.02;;
40046;SDS011;31510;48.122;11.576;2022-07-22T12:01:09;9.82;;;8.80;;
40046;SDS011;31510;48.122;11.576;2022-07-22T12:03:36;8.50;;;7.57;;
40046;SDS011;31510;48.122;11.576;2022-07-22T12:06:03;9.90;;;7.50;;
40046;SDS011;31510;48.122;11.576;2022-07-22T12:08:31;14.95;;;8.15;;
40046;SDS011;31510;48.122;11.576;2022-07-22T12:10:58;8.88;;;8.02;;
40046;SDS011;31510;48.122;11.576;2022-07-22T12:13:28;8.75;;;7.85;;
40046;SDS011;31510;48.122;11.576;2022-07-22T12:15:55;11.25;;;8.35;;
40046;SDS011;31510;48.122;11.576;2022-07-22T12:18:24;10.07;;;8.17;;
40046;SDS011;31510;48.122;11.576;2022-07-22T12:20:52;10.52;;;9.13;;
40046;SDS011;31510;48.122;11.576;2022-07-22T12:23:20;9.73;;;8.82;;
40046;SDS011;31510;48.122;11.576;2022-07-22T12:25:59;10.60;;;8.38;;
40046;SDS011;31510;48.122;11.576;2022-07-22T12:28:26;8.98;;;8.13;;
40046;SDS011;31510;48.122;11.576;2022-07-22T12:30:53;10.70;;;8.27;;
40046;SDS011;31510;48.122;11.576;2022-07-22T12:33:20;9.02;;;8.13;;
40046;SDS011;31510;48.122;11.576;2022-07-22T12:35:59;8.82;;;7.53;;
40046;SDS011;31510;48.122;11.576;2022-07-22T12:38:26;9.65;;;8.63;;
40046;SDS011;31510;48.122;11.576;2022-07-22T12:40:52;9.57;;;8.68;;
40046;SDS011;31510;48.122;11.576;2022-07-22T12:43:17;9.25;;;8.32;;
40046;SDS011;31510;48.122;11.576;2022-07-22T12:45:42;9.23;;;7.72;;
40046;SDS011;31510;48.122;11.576;2022-07-22T12:48:08;10.05;;;8.85;;
40046;SDS011;31510;48.122;11.576;2022-07-22T12:53:07;10.25;;;8.45;;
40046;SDS011;31510;48.122;11.576;2022-07-22T12:55:41;9.05;;;8.15;;
40046;SDS011;31510;48.122;11.576;2022-07-22T12:58:09;10.10;;;7.90;;
40046;SDS011;31510;48.122;11.576;2022-07-22T13:00:35;11.45;;;8.82;;
40046;SDS011;31510;48.122;11.576;2022-07-22T13:03:03;9.02;;;8.13;;
40046;SDS011;31510;48.122;11.576;2022-07-22T13:05:28;10.35;;;8.60;;
40046;SDS011;31510;48.122;11.576;2022-07-22T13:07:54;9.60;;;8.70;;
40046;SDS011;31510;48.122;11.576;2022-07-22T13:10:20;8.77;;;7.90;;
40046;SDS011;31510;48.122;11.576;2022-07-22T13:12:47;9.60;;;8.60;;
40046;SDS011;31510;48.122;11.576;2022-07-22T13:15:13;10.57;;;9.43;;
40046;SDS011;31510;48.122;11.576;2022-07-22T13:17:39;9.32;;;8.38;;
40046;SDS011;31510;48.122;11.576;2022-07-22T13:20:05;11.00;;;8.60;;
40046;SDS011;31510;48.122;11.576;2022-07-22T13:22:31;10.15;;;8.52;;
40046;SDS011;31510;48.122;11.576;2022-07-22T13:24:57;9.50;;;8.60;;
40046;SDS011;31510;48.122;11.576;2022-07-22T13:27:22;10.73;;;9.00;;
40046;SDS011;31510;48.122;11.576;2022-07-22T13:29:48;11.10;;;8.52;;
40046;SDS011;31510;48.122;11.576;2022-07-22T13:32:13;12.85;;;9.23;;
40046;SDS011;31510;48.122;11.576;2022-07-22T13:34:39;9.95;;;9.05;;
40046;SDS011;31510;48.122;11.576;2022-07-22T13:37:04;12.88;;;8.88;;
40046;SDS011;31510;48.122;11.576;2022-07-22T13:39:30;9.73;;;8.80;;
40046;SDS011;31510;48.122;11.576;2022-07-22T13:41:55;11.98;;;9.80;;
40046;SDS011;31510;48.122;11.576;2022-07-22T13:44:20;10.27;;;8.57;;
40046;SDS011;31510;48.122;11.576;2022-07-22T13:46:46;10.15;;;8.27;;
40046;SDS011;31510;48.122;11.576;2022-07-22T13:49:12;9.82;;;8.60;;
40046;SDS011;31510;48.122;11.576;2022-07-22T13:51:37;11.38;;;8.93;;
40046;SDS011;31510;48.122;11.576;2022-07-22T13:54:02;10.20;;;8.18;;
40046;SDS011;31510;48.122;11.576;2022-07-22T13:56:29;10.48;;;8.18;;
40046;SDS011;31510;48.122;11.576;2022-07-22T13:58:55;12.75;;;9.63;;
40046;SDS011;31510;48.122;11.576;2022-07-22T14:01:20;10.80;;;8.40;;
40046;SDS011;31510;48.122;11.576;2022-07-22T14:03:45;9.60;;;8.75;;
40046;SDS011;31510;48.122;11.576;2022-07-22T14:06:11;10.00;;;8.80;;
40046;SDS011;31510;48.122;11.576;2022-07-22T14:08:36;12.65;;;9.45;;
40046;SDS011;31510;48.122;11.576;2022-07-22T14:11:02;11.98;;;8.63;;
40046;SDS011;31510;48.122;11.576;2022-07-22T14:13:28;11.10;;;8.82;;
40046;SDS011;31510;48.122;11.576;2022-07-22T14:15:54;10.25;;;8.93;;
40046;SDS011;31510;48.122;11.576;2022-07-22T14:18:19;10.63;;;9.25;;
40046;SDS011;31510;48.122;11.576;2022-07-22T14:20:45;10.45;;;8.75;;
40046;SDS011;31510;48.122;11.576;2022-07-22T14:23:10;14.55;;;9.32;;
40046;SDS011;31510;48.122;11.576;2022-07-22T14:25:36;12.00;;;8.80;;
40046;SDS011;31510;48.122;11.576;2022-07-22T14:28:02;12.80;;;9.57;;
40046;SDS011;31510;48.122;11.576;2022-07-22T14:30:28;9.65;;;8.75;;
40046;SDS011;31510;48.122;11.576;2022-07-22T14:32:54;9.35;;;8.45;;
40046;SDS011;31510;48.122;11.576;2022-07-22T14:35:20;10.90;;;8.88;;